createdAt,value
2022-09-15T00:01:12.690Z,2.20
2022-09-15T00:03:41.022Z,1.95
2022-09-15T00:06:09.286Z,2.47
2022-09-15T00:08:36.598Z,1.85
2022-09-15T00:11:27.961Z,2.50
2022-09-15T00:13:56.959Z,1.80
2022-09-15T00:16:26.378Z,1.88
2022-09-15T00:18:54.460Z,2.08
2022-09-15T00:21:25.656Z,1.67
2022-09-15T00:23:53.046Z,2.08
2022-09-15T00:26:23.354Z,2.33
2022-09-15T00:28:51.554Z,1.75
2022-09-15T00:31:21.726Z,2.03
2022-09-15T00:33:51.072Z,2.30
2022-09-15T00:36:19.920Z,2.10
2022-09-15T00:38:47.642Z,2.20
2022-09-15T00:41:17.207Z,2.15
2022-09-15T00:44:03.245Z,2.40
2022-09-15T00:46:41.316Z,2.40
2022-09-15T00:49:21.033Z,1.92
2022-09-15T00:51:50.686Z,2.13
2022-09-15T00:54:43.732Z,2.30
2022-09-15T00:57:26.370Z,2.10
2022-09-15T00:59:56.188Z,2.33
2022-09-15T01:02:27.559Z,2.47
2022-09-15T01:04:58.565Z,2.07
2022-09-15T01:07:53.833Z,2.53
2022-09-15T01:10:28.577Z,2.20
2022-09-15T01:12:59.611Z,1.92
2022-09-15T01:15:38.038Z,1.95
2022-09-15T01:21:41.359Z,2.75
2022-09-15T01:24:27.555Z,1.85
2022-09-15T01:26:55.007Z,3.47
2022-09-15T01:30:01.693Z,2.28
2022-09-15T01:33:05.923Z,2.17
2022-09-15T01:35:44.612Z,2.55
2022-09-15T01:38:22.318Z,2.63
2022-09-15T01:41:11.753Z,2.40
2022-09-15T01:43:49.506Z,3.10
2022-09-15T01:46:19.335Z,2.47
2022-09-15T01:48:49.273Z,2.55
2022-09-15T01:51:17.948Z,2.95
2022-09-15T01:53:47.483Z,2.47
2022-09-15T01:56:15.167Z,3.03
2022-09-15T01:58:43.038Z,2.50
2022-09-15T02:01:14.222Z,2.40
2022-09-15T02:03:48.123Z,3.05
2022-09-15T02:06:55.073Z,2.13
2022-09-15T02:09:36.849Z,3.15
2022-09-15T02:12:12.670Z,2.10
2022-09-15T02:15:08.286Z,2.67
2022-09-15T02:17:42.926Z,2.13
2022-09-15T02:20:30.157Z,2.50
2022-09-15T02:23:01.201Z,2.17
2022-09-15T02:25:33.029Z,1.80
2022-09-15T02:28:08.233Z,1.77
2022-09-15T02:30:41.456Z,2.28
2022-09-15T02:33:14.500Z,1.80
2022-09-15T02:35:42.783Z,2.08
2022-09-15T02:38:11.877Z,1.55
2022-09-15T02:40:44.707Z,1.60
2022-09-15T02:43:14.532Z,1.42
2022-09-15T02:45:41.976Z,2.40
2022-09-15T02:48:10.016Z,2.33
2022-09-15T02:50:38.536Z,1.50
2022-09-15T02:53:05.819Z,1.60
2022-09-15T02:55:33.263Z,1.63
2022-09-15T02:58:00.627Z,1.63
2022-09-15T03:00:28.795Z,1.60
2022-09-15T03:02:56.308Z,1.55
2022-09-15T03:05:26.361Z,1.95
2022-09-15T03:07:54.047Z,1.65
2022-09-15T03:10:22.551Z,1.60
2022-09-15T03:12:53.215Z,1.70
2022-09-15T03:15:23.703Z,1.75
2022-09-15T03:17:52.030Z,2.00
2022-09-15T03:20:22.326Z,1.48
2022-09-15T03:22:50.579Z,1.80
2022-09-15T03:25:18.793Z,1.60
2022-09-15T03:27:46.144Z,1.70
2022-09-15T03:30:14.549Z,1.45
2022-09-15T03:32:41.823Z,1.40
2022-09-15T03:35:09.996Z,1.75
2022-09-15T03:37:37.834Z,1.83
2022-09-15T03:40:06.113Z,2.00
2022-09-15T03:42:33.682Z,1.98
2022-09-15T03:45:01.071Z,1.88
2022-09-15T03:47:28.395Z,2.50
2022-09-15T03:49:55.780Z,1.95
2022-09-15T03:52:23.114Z,2.28
2022-09-15T03:54:50.291Z,2.08
2022-09-15T03:57:17.702Z,2.05
2022-09-15T03:59:45.365Z,2.30
2022-09-15T04:02:12.917Z,2.97
2022-09-15T04:04:40.288Z,2.35
2022-09-15T04:07:09.218Z,2.15
2022-09-15T04:09:37.606Z,1.98
2022-09-15T04:12:05.226Z,1.98
2022-09-15T04:14:32.433Z,1.73
2022-09-15T04:17:00.129Z,1.55
2022-09-15T04:19:27.544Z,1.88
2022-09-15T04:21:54.903Z,1.33
2022-09-15T04:24:22.121Z,1.42
2022-09-15T04:26:49.345Z,1.58
2022-09-15T04:29:17.771Z,2.05
2022-09-15T04:31:45.493Z,1.35
2022-09-15T04:34:12.954Z,1.30
2022-09-15T04:36:40.168Z,1.40
2022-09-15T04:39:07.465Z,1.45
2022-09-15T04:41:34.962Z,1.60
2022-09-15T04:44:02.942Z,1.15
2022-09-15T04:46:31.605Z,1.30
2022-09-15T04:48:58.820Z,1.38
2022-09-15T04:51:27.518Z,2.38
2022-09-15T04:53:55.797Z,1.58
2022-09-15T04:56:25.868Z,1.65
2022-09-15T04:58:59.467Z,1.73
2022-09-15T05:01:32.811Z,1.55
2022-09-15T05:04:04.423Z,1.70
2022-09-15T05:06:33.107Z,2.22
2022-09-15T05:09:00.658Z,1.90
2022-09-15T05:11:28.695Z,1.65
2022-09-15T05:13:55.841Z,2.00
2022-09-15T05:16:25.378Z,2.17
2022-09-15T05:18:56.952Z,2.10
2022-09-15T05:21:24.817Z,2.10
2022-09-15T05:23:53.037Z,2.20
2022-09-15T05:26:26.548Z,2.08
2022-09-15T05:28:54.215Z,2.15
2022-09-15T05:31:27.172Z,2.28
2022-09-15T05:33:55.154Z,2.30
2022-09-15T05:36:25.776Z,2.22
2022-09-15T05:38:54.451Z,2.00
2022-09-15T05:41:21.759Z,2.28
2022-09-15T05:43:53.621Z,1.88
2022-09-15T05:46:21.074Z,2.22
2022-09-15T05:48:48.802Z,2.05
2022-09-15T05:51:16.051Z,2.75
2022-09-15T05:53:43.386Z,2.33
2022-09-15T05:56:13.227Z,2.45
2022-09-15T05:58:42.125Z,2.95
2022-09-15T06:01:18.077Z,2.83
2022-09-15T06:03:45.605Z,2.97
2022-09-15T06:06:13.519Z,2.15
2022-09-15T06:08:45.796Z,2.40
2022-09-15T06:11:20.488Z,2.80
2022-09-15T06:13:48.959Z,2.78
2022-09-15T06:16:26.986Z,2.95
2022-09-15T06:18:54.532Z,2.65
2022-09-15T06:21:24.936Z,2.92
2022-09-15T06:23:57.394Z,2.67
2022-09-15T06:26:26.118Z,2.67
2022-09-15T06:29:12.657Z,2.58
2022-09-15T06:31:40.631Z,2.30
2022-09-15T06:34:09.609Z,2.00
2022-09-15T06:36:38.339Z,2.47
2022-09-15T06:39:05.565Z,2.08
2022-09-15T06:41:58.424Z,2.30
2022-09-15T06:44:21.915Z,1.90
2022-09-15T06:46:49.661Z,2.00
2022-09-15T06:49:17.507Z,2.65
2022-09-15T06:51:45.243Z,2.08
2022-09-15T06:54:12.899Z,2.17
2022-09-15T06:56:40.322Z,2.70
2022-09-15T06:59:07.811Z,2.20
2022-09-15T07:01:35.341Z,2.03
2022-09-15T07:04:06.593Z,2.40
2022-09-15T07:06:34.384Z,2.50
2022-09-15T07:09:04.221Z,2.38
2022-09-15T07:11:33.814Z,2.25
2022-09-15T07:14:01.347Z,2.33
2022-09-15T07:16:28.785Z,2.50
2022-09-15T07:18:57.555Z,2.42
2022-09-15T07:21:24.980Z,2.60
2022-09-15T07:23:52.527Z,2.38
2022-09-15T07:26:28.599Z,2.63
2022-09-15T07:28:58.665Z,2.40
2022-09-15T07:31:29.364Z,2.42
2022-09-15T07:33:56.779Z,2.25
2022-09-15T07:36:24.213Z,2.63
2022-09-15T07:38:51.879Z,2.25
2022-09-15T07:41:21.967Z,2.25
2022-09-15T07:43:54.721Z,2.50
2022-09-15T07:46:24.003Z,2.50
2022-09-15T07:48:53.972Z,1.98
2022-09-15T07:51:21.397Z,2.20
2022-09-15T07:53:49.685Z,2.20
2022-09-15T07:56:18.771Z,2.25
2022-09-15T07:58:47.613Z,2.42
2022-09-15T08:01:16.419Z,1.73
2022-09-15T08:03:45.610Z,2.40
2022-09-15T08:06:13.932Z,1.63
2022-09-15T08:08:41.848Z,1.60
2022-09-15T08:11:15.154Z,1.65
2022-09-15T08:13:46.556Z,2.40
2022-09-15T08:16:18.383Z,1.65
2022-09-15T08:18:46.223Z,1.90
2022-09-15T08:21:17.939Z,2.10
2022-09-15T08:23:45.729Z,1.92
2022-09-15T08:26:14.664Z,1.45
2022-09-15T08:28:42.746Z,1.70
2022-09-15T08:31:12.874Z,1.27
2022-09-15T08:33:44.761Z,1.45
2022-09-15T08:36:16.140Z,1.50
2022-09-15T08:38:45.042Z,1.52
2022-09-15T08:41:24.692Z,1.40
2022-09-15T08:44:10.630Z,1.20
2022-09-15T08:46:43.315Z,1.50
2022-09-15T08:49:35.584Z,1.42
2022-09-15T08:52:36.071Z,1.90
2022-09-15T08:55:12.757Z,1.13
2022-09-15T08:57:40.097Z,1.60
2022-09-15T09:00:13.984Z,1.02
2022-09-15T09:03:02.965Z,1.15
2022-09-15T09:05:47.198Z,0.90
2022-09-15T09:08:14.506Z,1.10
2022-09-15T09:11:03.576Z,0.90
2022-09-15T09:14:01.792Z,1.63
2022-09-15T09:16:43.123Z,0.68
2022-09-15T09:19:28.946Z,0.85
2022-09-15T09:22:05.854Z,0.82
2022-09-15T09:24:42.603Z,0.70
2022-09-15T09:27:22.347Z,0.70
2022-09-15T09:30:01.303Z,0.77
2022-09-15T09:32:44.093Z,0.73
2022-09-15T09:35:34.749Z,0.70
2022-09-15T09:38:02.788Z,0.60
2022-09-15T09:40:31.885Z,0.63
2022-09-15T09:43:01.273Z,0.45
2022-09-15T09:45:28.558Z,0.68
2022-09-15T09:48:02.977Z,0.57
2022-09-15T09:50:45.421Z,0.50
2022-09-15T09:53:34.026Z,0.60
2022-09-15T09:56:28.078Z,1.35
2022-09-15T09:58:55.737Z,1.52
2022-09-15T10:01:26.338Z,0.70
2022-09-15T10:04:21.340Z,0.80
2022-09-15T10:06:49.509Z,0.82
2022-09-15T10:09:19.138Z,1.23
2022-09-15T10:11:49.085Z,1.23
2022-09-15T10:14:31.673Z,1.10
2022-09-15T10:17:18.812Z,1.13
2022-09-15T10:19:58.737Z,0.90
2022-09-15T10:22:39.359Z,1.00
2022-09-15T10:25:39.477Z,0.60
2022-09-15T10:28:24.043Z,0.40
2022-09-15T10:31:02.229Z,0.45
2022-09-15T10:33:35.664Z,0.60
2022-09-15T10:36:07.216Z,0.52
2022-09-15T10:38:46.485Z,0.82
2022-09-15T10:41:35.215Z,0.60
2022-09-15T10:44:23.665Z,0.82
2022-09-15T10:47:07.441Z,0.38
2022-09-15T10:49:55.847Z,0.30
2022-09-15T10:53:00.551Z,0.30
2022-09-15T10:55:52.940Z,0.40
2022-09-15T10:58:26.752Z,0.60
2022-09-15T11:00:54.125Z,0.50
2022-09-15T11:03:29.512Z,0.40
2022-09-15T11:06:33.772Z,0.50
2022-09-15T11:09:23.410Z,0.40
2022-09-15T11:12:09.675Z,0.50
2022-09-15T11:14:55.612Z,0.52
2022-09-15T11:17:57.908Z,0.40
2022-09-15T11:20:43.403Z,0.55
2022-09-15T11:23:33.420Z,0.38
2022-09-15T11:26:17.686Z,0.43
2022-09-15T11:28:56.169Z,0.80
2022-09-15T11:31:31.024Z,0.70
2022-09-15T11:34:19.736Z,0.70
2022-09-15T11:37:15.319Z,1.15
2022-09-15T11:39:48.931Z,1.30
2022-09-15T11:42:23.482Z,1.23
2022-09-15T11:44:51.168Z,1.20
2022-09-15T11:47:42.597Z,1.05
2022-09-15T11:50:34.541Z,0.93
2022-09-15T11:53:16.980Z,1.15
2022-09-15T11:55:58.738Z,0.60
2022-09-15T11:58:32.590Z,0.70
2022-09-15T12:01:12.818Z,1.05
2022-09-15T12:04:08.942Z,0.63
2022-09-15T12:09:33.701Z,0.75
2022-09-15T12:12:07.169Z,0.52
2022-09-15T12:14:53.711Z,0.70
2022-09-15T12:17:42.205Z,0.50
2022-09-15T12:20:32.563Z,0.90
2022-09-15T12:23:24.658Z,0.98
2022-09-15T12:26:14.559Z,1.13
2022-09-15T12:28:54.541Z,0.65
2022-09-15T12:31:34.030Z,0.65
2022-09-15T12:34:03.874Z,0.60
2022-09-15T12:36:43.116Z,0.60
2022-09-15T12:39:22.415Z,0.50
2022-09-15T12:42:31.450Z,0.50
2022-09-15T12:45:21.157Z,0.98
2022-09-15T12:47:54.969Z,0.82
2022-09-15T12:50:31.273Z,0.50
2022-09-15T12:53:20.882Z,0.52
2022-09-15T12:55:52.674Z,1.05
2022-09-15T12:58:39.886Z,0.95
2022-09-15T13:01:31.900Z,0.55
2022-09-15T13:03:59.210Z,0.55
2022-09-15T13:06:29.189Z,1.08
2022-09-15T13:08:56.468Z,0.80
2022-09-15T13:11:38.930Z,1.00
2022-09-15T13:14:09.061Z,0.60
2022-09-15T13:16:52.084Z,1.02
2022-09-15T13:19:41.457Z,0.70
2022-09-15T13:22:12.162Z,0.75
2022-09-15T13:25:05.214Z,0.55
2022-09-15T13:27:41.406Z,0.20
2022-09-15T13:30:37.099Z,0.35
2022-09-15T13:39:50.903Z,0.10
2022-09-15T13:42:51.744Z,0.28
2022-09-15T13:45:38.148Z,0.10
2022-09-15T13:48:36.542Z,0.10
2022-09-15T13:51:30.137Z,0.20
2022-09-15T13:54:06.976Z,0.35
2022-09-15T13:56:39.855Z,0.20
2022-09-15T13:59:16.798Z,0.47
2022-09-15T14:01:45.388Z,0.30
2022-09-15T14:04:19.516Z,0.20
2022-09-15T14:06:57.028Z,0.20
2022-09-15T14:09:43.507Z,0.20
2022-09-15T14:12:13.176Z,0.20
2022-09-15T14:14:51.728Z,0.30
2022-09-15T14:17:25.560Z,0.30
2022-09-15T14:19:55.206Z,1.05
2022-09-15T14:22:29.490Z,0.45
2022-09-15T14:24:58.264Z,0.30
2022-09-15T14:27:34.992Z,0.20
2022-09-15T14:30:05.500Z,0.30
2022-09-15T14:32:38.670Z,0.77
2022-09-15T14:35:09.218Z,0.20
2022-09-15T14:37:37.036Z,0.65
2022-09-15T14:40:21.566Z,0.30
2022-09-15T14:42:48.885Z,0.32
2022-09-15T14:48:16.684Z,0.25
2022-09-15T14:50:46.597Z,0.50
2022-09-15T14:53:22.262Z,0.30
2022-09-15T14:56:08.214Z,0.30
2022-09-15T14:59:09.362Z,0.30
2022-09-15T15:01:41.009Z,0.40
2022-09-15T15:04:17.396Z,0.40
2022-09-15T15:06:51.121Z,0.40
2022-09-15T15:09:47.526Z,0.40
2022-09-15T15:12:35.686Z,0.70
2022-09-15T15:15:03.552Z,1.55
2022-09-15T15:17:36.226Z,0.63
2022-09-15T15:20:09.616Z,2.30
2022-09-15T15:22:43.851Z,2.15
2022-09-15T15:25:30.275Z,0.82
2022-09-15T15:27:59.460Z,1.00
2022-09-15T15:30:32.537Z,1.02
2022-09-15T15:33:19.682Z,0.82
2022-09-15T15:35:51.506Z,0.88
2022-09-15T15:38:20.594Z,0.60
2022-09-15T15:40:47.821Z,0.93
2022-09-15T15:43:22.704Z,0.95
2022-09-15T15:45:58.550Z,0.50
2022-09-15T15:48:27.676Z,0.85
2022-09-15T15:50:55.850Z,0.60
2022-09-15T15:53:24.768Z,0.50
2022-09-15T15:55:52.386Z,1.10
2022-09-15T15:58:19.947Z,0.40
2022-09-15T16:00:51.292Z,0.40
2022-09-15T16:03:19.763Z,0.67
2022-09-15T16:05:50.755Z,0.70
2022-09-15T16:08:18.066Z,0.68
2022-09-15T16:10:48.094Z,0.60
2022-09-15T16:13:17.655Z,0.60
2022-09-15T16:15:46.068Z,0.60
2022-09-15T16:18:14.068Z,1.50
2022-09-15T16:20:43.047Z,0.52
2022-09-15T16:23:15.866Z,1.35
2022-09-15T16:25:49.063Z,0.52
2022-09-15T16:28:17.543Z,0.60
2022-09-15T16:30:45.135Z,1.40
2022-09-15T16:33:14.962Z,1.00
2022-09-15T16:35:55.176Z,0.90
2022-09-15T16:38:25.891Z,0.95
2022-09-15T16:40:53.435Z,0.70
2022-09-15T16:43:22.160Z,0.60
2022-09-15T16:45:50.741Z,0.80
2022-09-15T16:48:18.289Z,1.08
2022-09-15T16:51:09.093Z,0.80
2022-09-15T16:53:34.515Z,0.57
2022-09-15T16:56:02.106Z,0.60
2022-09-15T16:58:29.570Z,0.40
2022-09-15T17:00:57.355Z,0.47
2022-09-15T17:03:27.053Z,0.50
2022-09-15T17:06:02.076Z,1.00
2022-09-15T17:08:34.041Z,0.60
2022-09-15T17:11:04.971Z,0.60
2022-09-15T17:13:34.794Z,0.65
2022-09-15T17:16:03.026Z,0.80
2022-09-15T17:18:30.922Z,0.60
2022-09-15T17:20:58.245Z,0.50
2022-09-15T17:23:27.996Z,0.68
2022-09-15T17:25:58.180Z,0.70
2022-09-15T17:28:28.023Z,0.68
2022-09-15T17:31:00.525Z,0.60
2022-09-15T17:33:29.515Z,1.48
2022-09-15T17:35:57.198Z,0.90
2022-09-15T17:38:25.452Z,0.93
2022-09-15T17:40:55.476Z,0.88
2022-09-15T17:43:28.179Z,0.68
2022-09-15T17:45:56.210Z,0.98
2022-09-15T17:48:24.335Z,1.38
2022-09-15T17:50:53.127Z,1.20
2022-09-15T17:53:23.216Z,0.93
2022-09-15T17:55:51.483Z,1.05
2022-09-15T17:58:20.237Z,1.23
2022-09-15T18:00:49.097Z,1.80
2022-09-15T18:03:30.831Z,1.33
2022-09-15T18:06:00.910Z,1.03
2022-09-15T18:08:29.909Z,1.35
2022-09-15T18:10:57.824Z,2.08
2022-09-15T18:13:28.514Z,1.80
2022-09-15T18:15:59.003Z,1.60
2022-09-15T18:18:28.716Z,1.73
2022-09-15T18:20:58.329Z,2.00
2022-09-15T18:23:30.509Z,3.13
2022-09-15T18:26:01.373Z,2.40
2022-09-15T18:28:30.504Z,1.73
2022-09-15T18:30:57.985Z,2.00
2022-09-15T18:33:26.543Z,2.20
2022-09-15T18:35:57.151Z,2.50
2022-09-15T18:38:25.165Z,2.20
2022-09-15T18:40:55.629Z,2.15
2022-09-15T18:43:28.418Z,2.47
2022-09-15T18:46:01.155Z,2.13
2022-09-15T18:48:29.818Z,2.20
2022-09-15T18:50:59.023Z,2.42
2022-09-15T18:53:26.822Z,2.47
2022-09-15T18:55:55.658Z,2.20
2022-09-15T18:58:23.563Z,2.80
2022-09-15T19:00:53.040Z,2.47
2022-09-15T19:03:20.828Z,2.72
2022-09-15T19:05:49.674Z,2.90
2022-09-15T19:08:17.772Z,3.03
2022-09-15T19:10:45.844Z,3.25
2022-09-15T19:13:14.820Z,3.65
2022-09-15T19:15:44.555Z,3.38
2022-09-15T19:18:12.989Z,4.18
2022-09-15T19:20:41.097Z,3.60
2022-09-15T19:23:10.158Z,3.85
2022-09-15T19:25:38.156Z,4.05
2022-09-15T19:28:08.600Z,3.67
2022-09-15T19:30:37.599Z,4.47
2022-09-15T19:33:05.890Z,4.60
2022-09-15T19:35:33.652Z,3.83
2022-09-15T19:38:02.141Z,5.05
2022-09-15T19:40:29.822Z,4.82
2022-09-15T19:42:57.616Z,4.65
2022-09-15T19:45:25.197Z,5.28
2022-09-15T19:47:52.897Z,3.97
2022-09-15T19:50:20.800Z,4.53
2022-09-15T19:52:48.508Z,4.18
2022-09-15T19:55:16.301Z,4.90
2022-09-15T19:57:43.720Z,4.88
2022-09-15T20:00:16.035Z,5.50
2022-09-15T20:02:47.998Z,5.47
2022-09-15T20:05:18.354Z,5.82
2022-09-15T20:08:03.517Z,4.97
2022-09-15T20:10:31.280Z,5.72
2022-09-15T20:12:59.709Z,6.47
2022-09-15T20:15:33.346Z,5.57
2022-09-15T20:18:01.472Z,4.88
2022-09-15T20:20:32.987Z,5.57
2022-09-15T20:23:00.364Z,6.07
2022-09-15T20:25:28.652Z,4.70
2022-09-15T20:27:56.503Z,4.75
2022-09-15T20:30:29.010Z,4.38
2022-09-15T20:32:56.958Z,3.80
2022-09-15T20:35:27.412Z,3.80
2022-09-15T20:37:59.125Z,3.92
2022-09-15T20:40:27.838Z,4.38
2022-09-15T20:42:56.228Z,6.00
2022-09-15T20:45:24.582Z,3.90
2022-09-15T20:47:52.133Z,3.30
2022-09-15T20:50:19.561Z,3.55
2022-09-15T20:52:47.065Z,2.95
2022-09-15T20:55:14.836Z,3.40
2022-09-15T20:57:42.858Z,3.35
2022-09-15T21:00:10.733Z,2.80
2022-09-15T21:02:38.137Z,4.15
2022-09-15T21:05:05.828Z,3.13
2022-09-15T21:07:33.265Z,3.88
2022-09-15T21:10:00.573Z,3.03
2022-09-15T21:12:30.377Z,3.20
2022-09-15T21:14:58.424Z,3.45
2022-09-15T21:17:26.773Z,3.08
2022-09-15T21:19:54.516Z,3.17
2022-09-15T21:22:22.470Z,3.17
2022-09-15T21:24:49.885Z,3.78
2022-09-15T21:27:31.094Z,3.35
2022-09-15T21:29:59.496Z,3.17
2022-09-15T21:32:27.895Z,3.08
2022-09-15T21:34:56.650Z,3.25
2022-09-15T21:37:27.835Z,2.90
2022-09-15T21:39:55.673Z,2.67
2022-09-15T21:42:23.036Z,2.55
2022-09-15T21:44:51.410Z,2.35
2022-09-15T21:47:22.222Z,3.13
2022-09-15T21:49:52.186Z,2.63
2022-09-15T21:52:19.809Z,2.88
2022-09-15T21:54:47.335Z,2.25
2022-09-15T21:57:16.510Z,3.22
2022-09-15T21:59:44.559Z,2.50
2022-09-15T22:02:14.591Z,2.78
2022-09-15T22:04:49.391Z,3.00
2022-09-15T22:07:17.670Z,2.97
2022-09-15T22:09:47.054Z,2.50
2022-09-15T22:12:16.448Z,2.63
2022-09-15T22:14:44.997Z,2.28
2022-09-15T22:17:12.787Z,2.50
2022-09-15T22:19:41.280Z,2.03
2022-09-15T22:22:09.384Z,2.10
2022-09-15T22:24:37.161Z,1.92
2022-09-15T22:27:08.187Z,2.78
2022-09-15T22:29:41.324Z,2.13
2022-09-15T22:32:09.250Z,1.95
2022-09-15T22:34:37.394Z,2.20
2022-09-15T22:37:05.358Z,2.38
2022-09-15T22:39:57.406Z,2.10
2022-09-15T22:42:21.129Z,2.08
2022-09-15T22:44:50.406Z,1.80
2022-09-15T22:47:17.954Z,2.35
2022-09-15T22:49:45.880Z,2.40
2022-09-15T22:52:13.684Z,2.40
2022-09-15T22:57:23.208Z,2.17
2022-09-15T22:59:50.708Z,2.33
2022-09-15T23:02:23.653Z,2.45
2022-09-15T23:04:51.088Z,2.40
2022-09-15T23:07:22.656Z,2.30
2022-09-15T23:09:54.003Z,2.78
2022-09-15T23:12:25.973Z,3.30
2022-09-15T23:18:01.685Z,3.08
2022-09-15T23:20:29.224Z,2.60
2022-09-15T23:22:58.120Z,3.10
2022-09-15T23:25:25.895Z,2.63
2022-09-15T23:27:54.106Z,3.25
2022-09-15T23:30:21.610Z,3.10
2022-09-15T23:32:49.279Z,3.17
2022-09-15T23:35:17.512Z,2.95
2022-09-15T23:37:45.777Z,4.82
2022-09-15T23:40:13.245Z,3.25
2022-09-15T23:42:41.058Z,3.30
2022-09-15T23:45:09.943Z,3.15
2022-09-15T23:47:37.429Z,3.40
2022-09-15T23:50:05.184Z,3.45
2022-09-15T23:52:33.294Z,3.75
2022-09-15T23:55:01.062Z,3.55
2022-09-15T23:57:30.238Z,3.50
